createdAt,value
2023-01-01T00:00:34.226Z,59.47
2023-01-01T00:05:38.701Z,60.03
2023-01-01T00:10:40.031Z,60.00
2023-01-01T00:15:41.512Z,60.20
2023-01-01T00:20:42.899Z,60.17
2023-01-01T00:25:44.452Z,60.25
2023-01-01T00:30:45.840Z,60.25
2023-01-01T00:35:47.217Z,60.46
2023-01-01T00:40:48.613Z,60.68
2023-01-01T00:45:52.832Z,61.10
2023-01-01T00:50:54.480Z,61.43
2023-01-01T00:55:56.449Z,61.25
2023-01-01T01:00:57.992Z,61.64
2023-01-01T01:06:02.078Z,61.68
2023-01-01T01:11:08.665Z,61.96
2023-01-01T01:16:13.573Z,62.24
2023-01-01T01:21:16.902Z,62.48
2023-01-01T01:26:23.747Z,62.59
2023-01-01T01:31:28.693Z,62.98
2023-01-01T01:36:30.285Z,62.53
2023-01-01T01:41:31.619Z,62.83
2023-01-01T01:46:36.665Z,63.01
2023-01-01T01:51:40.589Z,63.00
2023-01-01T01:56:50.948Z,62.98
2023-01-01T02:01:52.970Z,63.08
2023-01-01T02:06:55.685Z,62.93
2023-01-01T02:11:58.752Z,62.71
2023-01-01T02:17:09.081Z,62.62
2023-01-01T02:22:48.787Z,62.72
2023-01-01T02:28:08.847Z,62.54
2023-01-01T02:33:16.223Z,62.53
2023-01-01T02:38:24.001Z,62.54
2023-01-01T02:43:25.385Z,62.60
2023-01-01T02:48:40.477Z,62.64
2023-01-01T02:53:55.773Z,62.92
2023-01-01T02:59:33.518Z,62.95
2023-01-01T03:04:55.213Z,63.28
2023-01-01T03:10:07.473Z,63.43
2023-01-01T03:15:36.284Z,63.81
2023-01-01T03:20:42.357Z,63.90
2023-01-01T03:25:48.922Z,64.22
2023-01-01T03:30:52.563Z,64.19
2023-01-01T03:36:05.572Z,64.32
2023-01-01T03:41:35.635Z,64.14
2023-01-01T03:46:37.668Z,64.00
2023-01-01T03:52:15.322Z,64.35
2023-01-01T03:57:47.815Z,64.04
2023-01-01T04:02:52.070Z,63.89
2023-01-01T04:07:54.255Z,63.93
2023-01-01T04:12:57.579Z,64.07
2023-01-01T04:17:59.120Z,63.83
2023-01-01T04:23:01.673Z,63.96
2023-01-01T04:28:05.865Z,63.64
2023-01-01T04:33:07.208Z,63.87
2023-01-01T04:38:13.126Z,64.25
2023-01-01T04:43:14.442Z,64.08
2023-01-01T04:48:15.815Z,64.55
2023-01-01T04:53:17.156Z,64.58
2023-01-01T04:58:18.575Z,64.04
2023-01-01T05:03:19.907Z,64.23
2023-01-01T05:08:21.224Z,64.25
2023-01-01T05:13:22.588Z,64.19
2023-01-01T05:18:23.946Z,64.30
2023-01-01T05:23:25.308Z,64.33
2023-01-01T05:28:27.153Z,64.49
2023-01-01T05:33:28.464Z,64.73
2023-01-01T05:38:29.827Z,64.74
2023-01-01T05:43:31.152Z,64.81
2023-01-01T05:48:32.876Z,65.18
2023-01-01T05:53:35.072Z,65.36
2023-01-01T05:58:36.782Z,65.74
2023-01-01T06:03:38.125Z,65.54
2023-01-01T06:08:40.321Z,65.81
2023-01-01T06:13:41.635Z,65.97
2023-01-01T06:18:43.053Z,66.14
2023-01-01T06:23:44.734Z,65.80
2023-01-01T06:28:46.745Z,66.18
2023-01-01T06:33:48.984Z,66.23
2023-01-01T06:38:52.926Z,66.31
2023-01-01T06:43:56.068Z,66.14
2023-01-01T06:49:00.229Z,66.57
2023-01-01T06:54:03.742Z,66.86
2023-01-01T06:59:05.973Z,66.55
2023-01-01T07:04:11.061Z,66.51
2023-01-01T07:09:12.501Z,66.81
2023-01-01T07:14:13.917Z,66.69
2023-01-01T07:19:15.469Z,67.02
2023-01-01T07:24:17.187Z,67.18
2023-01-01T07:29:18.605Z,67.08
2023-01-01T07:34:20.084Z,67.41
2023-01-01T07:39:21.453Z,67.57
2023-01-01T07:44:22.806Z,67.37
2023-01-01T07:49:24.176Z,67.61
2023-01-01T07:54:25.569Z,67.32
2023-01-01T07:59:26.899Z,67.43
2023-01-01T08:04:28.261Z,67.79
2023-01-01T08:09:29.579Z,67.88
2023-01-01T08:14:30.931Z,67.67
2023-01-01T08:19:32.275Z,68.24
2023-01-01T08:24:33.618Z,68.50
2023-01-01T08:29:34.937Z,67.86
2023-01-01T08:34:36.400Z,68.12
2023-01-01T08:39:37.715Z,68.41
2023-01-01T08:44:39.033Z,68.09
2023-01-01T08:49:40.421Z,67.55
2023-01-01T08:54:41.848Z,67.74
2023-01-01T08:59:43.298Z,67.60
2023-01-01T09:04:44.665Z,67.86
2023-01-01T09:09:46.084Z,67.35
2023-01-01T09:14:48.018Z,67.03
2023-01-01T09:19:49.336Z,66.87
2023-01-01T09:24:50.672Z,66.24
2023-01-01T09:29:52.022Z,65.80
2023-01-01T09:34:53.412Z,65.33
2023-01-01T09:39:54.769Z,65.12
2023-01-01T09:45:20.986Z,64.51
2023-01-01T09:50:27.939Z,64.23
2023-01-01T09:56:05.163Z,64.25
2023-01-01T10:01:25.160Z,63.51
2023-01-01T10:06:33.655Z,63.31
2023-01-01T10:11:59.447Z,62.58
2023-01-01T10:17:06.497Z,62.34
2023-01-01T10:22:15.252Z,62.17
2023-01-01T10:27:39.961Z,61.79
2023-01-01T10:32:43.295Z,61.68
2023-01-01T10:37:45.039Z,61.22
2023-01-01T10:42:50.027Z,61.19
2023-01-01T10:48:15.067Z,60.92
2023-01-01T10:53:52.872Z,60.78
2023-01-01T10:58:56.525Z,60.78
2023-01-01T11:04:21.101Z,60.64
2023-01-01T11:09:26.539Z,60.54
2023-01-01T11:14:33.617Z,60.26
2023-01-01T11:19:37.516Z,60.12
2023-01-01T11:24:39.342Z,59.52
2023-01-01T11:29:40.735Z,59.39
2023-01-01T11:34:44.003Z,59.08
2023-01-01T11:39:48.920Z,58.83
2023-01-01T11:44:58.217Z,58.38
2023-01-01T11:50:08.904Z,58.08
2023-01-01T11:55:42.272Z,57.74
2023-01-01T12:00:44.115Z,57.53
2023-01-01T12:05:59.933Z,57.04
2023-01-01T12:11:39.553Z,56.70
2023-01-01T12:16:59.807Z,56.57
2023-01-01T12:22:01.229Z,56.31
2023-01-01T12:27:16.335Z,56.07
2023-01-01T12:32:49.857Z,56.00
2023-01-01T12:38:23.286Z,55.64
2023-01-01T12:43:43.027Z,55.19
2023-01-01T12:49:05.975Z,55.64
2023-01-01T12:54:39.596Z,55.44
2023-01-01T12:59:47.893Z,55.16
2023-01-01T13:04:53.867Z,55.35
2023-01-01T13:09:56.413Z,55.00
2023-01-01T13:14:57.767Z,54.79
2023-01-01T13:20:16.207Z,54.49
2023-01-01T13:25:17.564Z,54.63
2023-01-01T13:30:37.304Z,54.62
2023-01-01T13:35:38.944Z,54.55
2023-01-01T13:40:50.903Z,53.99
2023-01-01T13:46:13.088Z,53.96
2023-01-01T13:52:07.610Z,54.46
2023-01-01T13:57:28.082Z,54.23
2023-01-01T14:02:36.221Z,54.20
2023-01-01T14:07:52.696Z,54.33
2023-01-01T14:12:57.950Z,54.41
2023-01-01T14:18:02.723Z,54.11
2023-01-01T14:23:11.807Z,53.91
2023-01-01T14:28:22.170Z,54.22
2023-01-01T14:33:29.422Z,54.33
2023-01-01T14:38:32.125Z,54.47
2023-01-01T14:43:37.038Z,54.46
2023-01-01T14:48:43.552Z,54.16
2023-01-01T14:53:48.094Z,54.17
2023-01-01T14:58:49.460Z,54.65
2023-01-01T15:04:05.392Z,54.98
2023-01-01T15:09:06.830Z,55.63
2023-01-01T15:14:31.020Z,55.46
2023-01-01T15:19:32.591Z,55.78
2023-01-01T15:24:37.390Z,55.59
2023-01-01T15:29:47.336Z,55.66
2023-01-01T15:34:54.709Z,55.34
2023-01-01T15:39:59.316Z,55.70
2023-01-01T15:45:24.969Z,55.55
2023-01-01T15:50:35.616Z,55.67
2023-01-01T15:55:44.123Z,55.70
2023-01-01T16:00:58.491Z,55.90
2023-01-01T16:06:00.550Z,56.24
2023-01-01T16:11:01.931Z,56.47
2023-01-01T16:16:04.007Z,56.69
2023-01-01T16:21:05.793Z,56.62
2023-01-01T16:26:07.272Z,56.22
2023-01-01T16:31:14.706Z,56.53
2023-01-01T16:36:16.139Z,56.48
2023-01-01T16:41:18.172Z,56.56
2023-01-01T16:46:19.529Z,56.50
2023-01-01T16:51:24.138Z,57.06
2023-01-01T16:56:25.564Z,57.07
2023-01-01T17:01:27.196Z,57.45
2023-01-01T17:06:28.781Z,58.05
2023-01-01T17:11:30.169Z,58.56
2023-01-01T17:16:38.762Z,58.92
2023-01-01T17:21:41.032Z,58.66
2023-01-01T17:26:42.451Z,59.03
2023-01-01T17:31:44.088Z,59.37
2023-01-01T17:36:45.916Z,59.60
2023-01-01T17:41:47.345Z,59.57
2023-01-01T17:46:48.854Z,59.66
2023-01-01T17:51:50.385Z,60.15
2023-01-01T17:56:53.079Z,60.26
2023-01-01T18:01:54.526Z,60.39
2023-01-01T18:07:06.012Z,60.20
2023-01-01T18:12:07.692Z,60.78
2023-01-01T18:17:09.182Z,60.71
2023-01-01T18:22:10.740Z,61.02
2023-01-01T18:27:12.158Z,61.24
2023-01-01T18:32:13.533Z,61.54
2023-01-01T18:37:14.916Z,61.55
2023-01-01T18:42:39.635Z,61.76
2023-01-01T18:47:41.158Z,61.80
2023-01-01T18:52:42.576Z,62.19
2023-01-01T18:57:49.417Z,62.39
2023-01-01T19:03:28.247Z,62.57
2023-01-01T19:08:30.151Z,62.86
2023-01-01T19:13:41.673Z,63.21
2023-01-01T19:18:45.391Z,63.39
2023-01-01T19:23:55.316Z,63.38
2023-01-01T19:29:02.873Z,63.86
2023-01-01T19:34:04.482Z,63.23
2023-01-01T19:39:07.252Z,63.50
2023-01-01T19:44:10.492Z,63.77
2023-01-01T19:49:12.776Z,63.87
2023-01-01T19:54:14.413Z,64.09
2023-01-01T19:59:15.914Z,64.26
2023-01-01T20:04:17.405Z,64.09
2023-01-01T20:09:18.926Z,64.04
2023-01-01T20:14:20.272Z,64.33
2023-01-01T20:19:21.612Z,64.27
2023-01-01T20:24:23.010Z,64.50
2023-01-01T20:29:24.452Z,64.52
2023-01-01T20:34:26.746Z,64.72
2023-01-01T20:39:28.571Z,64.91
2023-01-01T20:44:30.235Z,64.73
2023-01-01T20:49:31.645Z,64.83
2023-01-01T20:54:33.160Z,65.17
2023-01-01T20:59:36.561Z,65.31
2023-01-01T21:04:40.318Z,65.29
2023-01-01T21:09:42.049Z,65.49
2023-01-01T21:14:43.418Z,65.38
2023-01-01T21:19:44.960Z,65.13
2023-01-01T21:24:49.802Z,65.28
2023-01-01T21:29:57.400Z,65.31
2023-01-01T21:34:58.824Z,65.42
2023-01-01T21:40:00.290Z,65.59
2023-01-01T21:45:02.019Z,65.64
2023-01-01T21:50:18.941Z,65.95
2023-01-01T21:55:50.145Z,65.67
2023-01-01T22:00:51.548Z,66.03
2023-01-01T22:05:58.975Z,66.23
2023-01-01T22:11:01.347Z,65.87
2023-01-01T22:16:03.091Z,66.04
2023-01-01T22:21:04.656Z,66.04
2023-01-01T22:26:17.294Z,66.36
2023-01-01T22:31:29.326Z,66.39
2023-01-01T22:36:34.696Z,66.48
2023-01-01T22:41:36.035Z,66.20
2023-01-01T22:46:40.076Z,66.62
2023-01-01T22:51:43.637Z,66.31
2023-01-01T22:56:44.973Z,66.43
2023-01-01T23:01:46.643Z,66.36
2023-01-01T23:06:48.056Z,66.35
2023-01-01T23:11:49.525Z,66.05
2023-01-01T23:16:50.919Z,66.18
2023-01-01T23:21:52.401Z,66.08
2023-01-01T23:26:53.804Z,65.94
2023-01-01T23:31:55.251Z,66.02
2023-01-01T23:36:57.726Z,66.10
2023-01-01T23:41:59.172Z,66.13
2023-01-01T23:47:00.966Z,66.25
2023-01-01T23:52:03.362Z,66.20
2023-01-01T23:57:05.363Z,66.29
